sensor_id;sensor_type;location;lat;lon;timestamp;temperature;humidity
81216;DHT22;70688;52.492;13.420;2023-07-20T00:01:04;19.50;65.50
81216;DHT22;70688;52.492;13.420;2023-07-20T00:03:30;19.70;65.10
81216;DHT22;70688;52.492;13.420;2023-07-20T00:05:55;19.60;64.90
81216;DHT22;70688;52.492;13.420;2023-07-20T00:08:21;19.50;65.00
81216;DHT22;70688;52.492;13.420;2023-07-20T00:10:47;19.50;65.30
81216;DHT22;70688;52.492;13.420;2023-07-20T00:13:12;19.60;64.90
81216;DHT22;70688;52.492;13.420;2023-07-20T00:15:38;19.70;64.70
81216;DHT22;70688;52.492;13.420;2023-07-20T00:18:04;19.80;64.20
81216;DHT22;70688;52.492;13.420;2023-07-20T00:20:30;19.70;64.30
81216;DHT22;70688;52.492;13.420;2023-07-20T00:22:57;19.60;64.50
81216;DHT22;70688;52.492;13.420;2023-07-20T00:25:23;19.50;64.80
81216;DHT22;70688;52.492;13.420;2023-07-20T00:27:49;19.40;65.40
81216;DHT22;70688;52.492;13.420;2023-07-20T00:30:15;19.50;65.20
81216;DHT22;70688;52.492;13.420;2023-07-20T00:32:42;19.50;65.00
81216;DHT22;70688;52.492;13.420;2023-07-20T00:35:08;19.50;65.40
81216;DHT22;70688;52.492;13.420;2023-07-20T00:37:33;19.20;66.40
81216;DHT22;70688;52.492;13.420;2023-07-20T00:39:59;19.20;67.10
81216;DHT22;70688;52.492;13.420;2023-07-20T00:42:24;19.20;67.00
81216;DHT22;70688;52.492;13.420;2023-07-20T00:44:50;19.10;67.30
81216;DHT22;70688;52.492;13.420;2023-07-20T00:47:16;19.10;67.40
81216;DHT22;70688;52.492;13.420;2023-07-20T00:49:42;19.00;68.20
81216;DHT22;70688;52.492;13.420;2023-07-20T00:52:10;18.90;68.80
81216;DHT22;70688;52.492;13.420;2023-07-20T00:54:40;19.00;68.10
81216;DHT22;70688;52.492;13.420;2023-07-20T00:57:07;19.10;67.70
81216;DHT22;70688;52.492;13.420;2023-07-20T00:59:34;19.20;67.20
81216;DHT22;70688;52.492;13.420;2023-07-20T01:02:00;19.20;67.10
81216;DHT22;70688;52.492;13.420;2023-07-20T01:04:26;19.10;67.00
81216;DHT22;70688;52.492;13.420;2023-07-20T01:09:59;19.30;66.30
81216;DHT22;70688;52.492;13.420;2023-07-20T01:12:41;19.20;66.50
81216;DHT22;70688;52.492;13.420;2023-07-20T01:15:07;19.30;66.10
81216;DHT22;70688;52.492;13.420;2023-07-20T01:17:34;19.20;67.40
81216;DHT22;70688;52.492;13.420;2023-07-20T01:19:59;19.20;66.10
81216;DHT22;70688;52.492;13.420;2023-07-20T01:33:07;19.00;66.50
81216;DHT22;70688;52.492;13.420;2023-07-20T01:35:34;19.00;66.20
81216;DHT22;70688;52.492;13.420;2023-07-20T01:38:01;19.00;66.10
81216;DHT22;70688;52.492;13.420;2023-07-20T01:40:27;19.00;66.50
81216;DHT22;70688;52.492;13.420;2023-07-20T01:42:54;18.90;66.70
81216;DHT22;70688;52.492;13.420;2023-07-20T01:45:19;18.80;67.10
81216;DHT22;70688;52.492;13.420;2023-07-20T01:47:45;18.90;67.00
81216;DHT22;70688;52.492;13.420;2023-07-20T01:50:11;18.90;66.60
81216;DHT22;70688;52.492;13.420;2023-07-20T01:52:36;18.90;66.70
81216;DHT22;70688;52.492;13.420;2023-07-20T01:55:02;19.00;66.20
81216;DHT22;70688;52.492;13.420;2023-07-20T01:57:28;19.10;66.20
81216;DHT22;70688;52.492;13.420;2023-07-20T01:59:53;19.10;65.80
81216;DHT22;70688;52.492;13.420;2023-07-20T02:02:19;19.00;65.70
81216;DHT22;70688;52.492;13.420;2023-07-20T02:04:46;19.00;65.90
81216;DHT22;70688;52.492;13.420;2023-07-20T02:07:11;19.00;66.00
81216;DHT22;70688;52.492;13.420;2023-07-20T02:09:37;19.00;65.50
81216;DHT22;70688;52.492;13.420;2023-07-20T02:12:03;19.00;65.90
81216;DHT22;70688;52.492;13.420;2023-07-20T02:14:28;18.90;66.60
81216;DHT22;70688;52.492;13.420;2023-07-20T02:16:54;18.90;66.50
81216;DHT22;70688;52.492;13.420;2023-07-20T02:19:25;18.80;66.50
81216;DHT22;70688;52.492;13.420;2023-07-20T02:21:52;18.80;66.70
81216;DHT22;70688;52.492;13.420;2023-07-20T02:24:17;18.80;66.10
81216;DHT22;70688;52.492;13.420;2023-07-20T02:26:43;18.70;66.40
81216;DHT22;70688;52.492;13.420;2023-07-20T02:29:09;18.80;66.60
81216;DHT22;70688;52.492;13.420;2023-07-20T02:31:37;18.80;66.00
81216;DHT22;70688;52.492;13.420;2023-07-20T02:34:05;18.80;65.80
81216;DHT22;70688;52.492;13.420;2023-07-20T02:36:31;18.70;66.30
81216;DHT22;70688;52.492;13.420;2023-07-20T02:38:58;18.60;67.00
81216;DHT22;70688;52.492;13.420;2023-07-20T02:41:24;18.50;67.10
81216;DHT22;70688;52.492;13.420;2023-07-20T02:43:50;18.60;67.30
81216;DHT22;70688;52.492;13.420;2023-07-20T02:46:15;18.50;67.20
81216;DHT22;70688;52.492;13.420;2023-07-20T02:48:41;18.70;66.80
81216;DHT22;70688;52.492;13.420;2023-07-20T02:51:06;18.80;66.40
81216;DHT22;70688;52.492;13.420;2023-07-20T02:53:33;18.80;65.80
81216;DHT22;70688;52.492;13.420;2023-07-20T02:55:58;18.90;65.30
81216;DHT22;70688;52.492;13.420;2023-07-20T02:58:24;19.00;65.10
81216;DHT22;70688;52.492;13.420;2023-07-20T03:00:50;18.80;65.80
81216;DHT22;70688;52.492;13.420;2023-07-20T03:03:15;18.60;66.80
81216;DHT22;70688;52.492;13.420;2023-07-20T03:05:42;18.50;66.60
81216;DHT22;70688;52.492;13.420;2023-07-20T03:08:08;18.50;67.20
81216;DHT22;70688;52.492;13.420;2023-07-20T03:10:39;18.40;67.30
81216;DHT22;70688;52.492;13.420;2023-07-20T03:13:06;18.50;66.40
81216;DHT22;70688;52.492;13.420;2023-07-20T03:15:32;18.60;65.80
81216;DHT22;70688;52.492;13.420;2023-07-20T03:17:57;18.40;66.30
81216;DHT22;70688;52.492;13.420;2023-07-20T03:20:24;18.30;66.60
81216;DHT22;70688;52.492;13.420;2023-07-20T03:22:49;18.30;67.00
81216;DHT22;70688;52.492;13.420;2023-07-20T03:25:15;18.30;66.90
81216;DHT22;70688;52.492;13.420;2023-07-20T03:27:41;18.50;66.40
81216;DHT22;70688;52.492;13.420;2023-07-20T03:30:07;18.40;66.90
81216;DHT22;70688;52.492;13.420;2023-07-20T03:32:32;18.50;66.10
81216;DHT22;70688;52.492;13.420;2023-07-20T03:34:58;18.40;67.20
81216;DHT22;70688;52.492;13.420;2023-07-20T03:37:24;18.50;66.40
81216;DHT22;70688;52.492;13.420;2023-07-20T03:39:49;18.80;65.60
81216;DHT22;70688;52.492;13.420;2023-07-20T03:42:15;18.90;64.80
81216;DHT22;70688;52.492;13.420;2023-07-20T03:44:40;19.00;64.10
81216;DHT22;70688;52.492;13.420;2023-07-20T03:47:06;19.00;64.00
81216;DHT22;70688;52.492;13.420;2023-07-20T03:49:32;19.00;64.50
81216;DHT22;70688;52.492;13.420;2023-07-20T03:51:57;19.00;64.30
81216;DHT22;70688;52.492;13.420;2023-07-20T03:54:43;18.80;65.00
81216;DHT22;70688;52.492;13.420;2023-07-20T03:57:09;18.80;64.90
81216;DHT22;70688;52.492;13.420;2023-07-20T03:59:36;18.80;65.30
81216;DHT22;70688;52.492;13.420;2023-07-20T04:02:02;19.00;64.70
81216;DHT22;70688;52.492;13.420;2023-07-20T04:04:28;19.10;64.10
81216;DHT22;70688;52.492;13.420;2023-07-20T04:06:53;19.10;64.10
81216;DHT22;70688;52.492;13.420;2023-07-20T04:09:19;18.80;65.10
81216;DHT22;70688;52.492;13.420;2023-07-20T04:11:44;18.60;65.70
81216;DHT22;70688;52.492;13.420;2023-07-20T04:14:10;18.40;66.30
81216;DHT22;70688;52.492;13.420;2023-07-20T04:16:35;18.20;67.20
81216;DHT22;70688;52.492;13.420;2023-07-20T04:19:02;18.40;67.00
81216;DHT22;70688;52.492;13.420;2023-07-20T04:21:28;18.40;66.60
81216;DHT22;70688;52.492;13.420;2023-07-20T04:23:54;18.50;65.90
81216;DHT22;70688;52.492;13.420;2023-07-20T04:26:19;18.70;65.00
81216;DHT22;70688;52.492;13.420;2023-07-20T04:28:45;18.70;64.80
81216;DHT22;70688;52.492;13.420;2023-07-20T04:31:15;18.70;65.20
81216;DHT22;70688;52.492;13.420;2023-07-20T04:33:41;18.80;64.50
81216;DHT22;70688;52.492;13.420;2023-07-20T04:36:07;18.70;64.80
81216;DHT22;70688;52.492;13.420;2023-07-20T04:38:33;18.70;64.90
81216;DHT22;70688;52.492;13.420;2023-07-20T04:40:59;18.80;64.20
81216;DHT22;70688;52.492;13.420;2023-07-20T04:43:25;18.80;64.40
81216;DHT22;70688;52.492;13.420;2023-07-20T04:45:51;18.50;65.10
81216;DHT22;70688;52.492;13.420;2023-07-20T04:48:17;18.60;65.20
81216;DHT22;70688;52.492;13.420;2023-07-20T04:50:44;18.60;65.30
81216;DHT22;70688;52.492;13.420;2023-07-20T04:53:11;18.60;65.30
81216;DHT22;70688;52.492;13.420;2023-07-20T04:55:38;18.80;64.50
81216;DHT22;70688;52.492;13.420;2023-07-20T04:58:04;18.90;64.30
81216;DHT22;70688;52.492;13.420;2023-07-20T05:00:31;19.10;63.30
81216;DHT22;70688;52.492;13.420;2023-07-20T05:02:57;19.20;62.60
81216;DHT22;70688;52.492;13.420;2023-07-20T05:05:23;19.40;61.90
81216;DHT22;70688;52.492;13.420;2023-07-20T05:07:48;19.40;61.50
81216;DHT22;70688;52.492;13.420;2023-07-20T05:10:14;19.20;62.50
81216;DHT22;70688;52.492;13.420;2023-07-20T05:12:40;19.40;62.30
81216;DHT22;70688;52.492;13.420;2023-07-20T05:15:06;19.40;61.50
81216;DHT22;70688;52.492;13.420;2023-07-20T05:17:31;19.50;60.80
81216;DHT22;70688;52.492;13.420;2023-07-20T05:19:57;19.50;61.20
81216;DHT22;70688;52.492;13.420;2023-07-20T05:22:22;19.40;61.10
81216;DHT22;70688;52.492;13.420;2023-07-20T05:24:50;19.30;61.40
81216;DHT22;70688;52.492;13.420;2023-07-20T05:27:15;19.50;60.60
81216;DHT22;70688;52.492;13.420;2023-07-20T05:29:45;19.70;59.60
81216;DHT22;70688;52.492;13.420;2023-07-20T05:32:12;19.80;59.30
81216;DHT22;70688;52.492;13.420;2023-07-20T05:34:37;20.00;58.40
81216;DHT22;70688;52.492;13.420;2023-07-20T05:37:03;20.40;57.10
81216;DHT22;70688;52.492;13.420;2023-07-20T05:39:29;20.60;56.00
81216;DHT22;70688;52.492;13.420;2023-07-20T05:41:54;20.40;55.90
81216;DHT22;70688;52.492;13.420;2023-07-20T05:44:20;20.10;56.50
81216;DHT22;70688;52.492;13.420;2023-07-20T05:46:45;20.30;56.70
81216;DHT22;70688;52.492;13.420;2023-07-20T05:49:11;20.10;57.40
81216;DHT22;70688;52.492;13.420;2023-07-20T05:51:37;20.50;56.80
81216;DHT22;70688;52.492;13.420;2023-07-20T05:54:02;20.70;56.00
81216;DHT22;70688;52.492;13.420;2023-07-20T05:56:28;20.90;55.40
81216;DHT22;70688;52.492;13.420;2023-07-20T05:58:53;21.20;54.10
81216;DHT22;70688;52.492;13.420;2023-07-20T06:01:19;21.50;53.40
81216;DHT22;70688;52.492;13.420;2023-07-20T06:03:44;21.20;53.80
81216;DHT22;70688;52.492;13.420;2023-07-20T06:06:10;21.60;53.00
81216;DHT22;70688;52.492;13.420;2023-07-20T06:08:37;21.50;53.00
81216;DHT22;70688;52.492;13.420;2023-07-20T06:11:03;21.10;53.90
81216;DHT22;70688;52.492;13.420;2023-07-20T06:13:29;20.90;54.30
81216;DHT22;70688;52.492;13.420;2023-07-20T06:15:54;21.00;53.80
81216;DHT22;70688;52.492;13.420;2023-07-20T06:18:22;21.00;53.80
81216;DHT22;70688;52.492;13.420;2023-07-20T06:20:57;20.80;54.40
81216;DHT22;70688;52.492;13.420;2023-07-20T06:23:22;20.70;55.40
81216;DHT22;70688;52.492;13.420;2023-07-20T06:25:48;20.40;56.10
81216;DHT22;70688;52.492;13.420;2023-07-20T06:28:14;20.30;56.80
81216;DHT22;70688;52.492;13.420;2023-07-20T06:30:40;20.30;56.70
81216;DHT22;70688;52.492;13.420;2023-07-20T06:33:06;20.30;56.50
81216;DHT22;70688;52.492;13.420;2023-07-20T06:35:32;20.20;56.30
81216;DHT22;70688;52.492;13.420;2023-07-20T06:37:57;20.40;55.50
81216;DHT22;70688;52.492;13.420;2023-07-20T06:40:24;20.30;55.70
81216;DHT22;70688;52.492;13.420;2023-07-20T06:42:50;20.40;55.40
81216;DHT22;70688;52.492;13.420;2023-07-20T06:45:15;20.80;54.60
81216;DHT22;70688;52.492;13.420;2023-07-20T06:47:41;21.00;53.60
81216;DHT22;70688;52.492;13.420;2023-07-20T06:50:08;21.10;52.40
81216;DHT22;70688;52.492;13.420;2023-07-20T06:52:34;21.40;51.40
81216;DHT22;70688;52.492;13.420;2023-07-20T06:54:59;21.70;50.10
81216;DHT22;70688;52.492;13.420;2023-07-20T06:57:25;22.00;49.00
81216;DHT22;70688;52.492;13.420;2023-07-20T06:59:51;22.10;48.50
81216;DHT22;70688;52.492;13.420;2023-07-20T07:02:17;21.50;49.80
81216;DHT22;70688;52.492;13.420;2023-07-20T07:04:42;21.30;50.50
81216;DHT22;70688;52.492;13.420;2023-07-20T07:07:08;21.50;50.20
81216;DHT22;70688;52.492;13.420;2023-07-20T07:09:35;22.40;46.70
81216;DHT22;70688;52.492;13.420;2023-07-20T07:12:00;24.70;41.70
81216;DHT22;70688;52.492;13.420;2023-07-20T07:14:26;27.50;35.30
81216;DHT22;70688;52.492;13.420;2023-07-20T07:16:51;29.30;31.10
81216;DHT22;70688;52.492;13.420;2023-07-20T07:19:17;30.80;28.90
81216;DHT22;70688;52.492;13.420;2023-07-20T07:21:43;31.60;27.30
81216;DHT22;70688;52.492;13.420;2023-07-20T07:24:08;30.90;27.90
81216;DHT22;70688;52.492;13.420;2023-07-20T07:26:35;31.00;27.40
81216;DHT22;70688;52.492;13.420;2023-07-20T07:29:01;30.10;28.10
81216;DHT22;70688;52.492;13.420;2023-07-20T07:31:28;29.30;29.30
81216;DHT22;70688;52.492;13.420;2023-07-20T07:33:53;30.60;27.80
81216;DHT22;70688;52.492;13.420;2023-07-20T07:36:19;30.50;27.10
81216;DHT22;70688;52.492;13.420;2023-07-20T07:38:45;30.20;27.70
81216;DHT22;70688;52.492;13.420;2023-07-20T07:41:10;29.20;27.80
81216;DHT22;70688;52.492;13.420;2023-07-20T07:43:36;28.60;28.80
81216;DHT22;70688;52.492;13.420;2023-07-20T07:46:01;28.60;28.60
81216;DHT22;70688;52.492;13.420;2023-07-20T07:48:27;28.90;28.90
81216;DHT22;70688;52.492;13.420;2023-07-20T07:50:54;28.80;29.00
81216;DHT22;70688;52.492;13.420;2023-07-20T07:53:20;29.70;28.00
81216;DHT22;70688;52.492;13.420;2023-07-20T07:55:48;30.00;27.50
81216;DHT22;70688;52.492;13.420;2023-07-20T07:58:14;30.30;27.30
81216;DHT22;70688;52.492;13.420;2023-07-20T08:00:39;29.50;28.20
81216;DHT22;70688;52.492;13.420;2023-07-20T08:03:08;28.70;28.80
81216;DHT22;70688;52.492;13.420;2023-07-20T08:05:34;27.60;30.60
81216;DHT22;70688;52.492;13.420;2023-07-20T08:08:03;27.70;30.10
81216;DHT22;70688;52.492;13.420;2023-07-20T08:10:30;27.70;29.80
81216;DHT22;70688;52.492;13.420;2023-07-20T08:12:55;27.40;29.80
81216;DHT22;70688;52.492;13.420;2023-07-20T08:15:21;27.80;29.30
81216;DHT22;70688;52.492;13.420;2023-07-20T08:17:47;28.50;28.70
81216;DHT22;70688;52.492;13.420;2023-07-20T08:20:14;28.20;28.60
81216;DHT22;70688;52.492;13.420;2023-07-20T08:22:41;27.30;29.40
81216;DHT22;70688;52.492;13.420;2023-07-20T08:25:08;26.20;31.80
81216;DHT22;70688;52.492;13.420;2023-07-20T08:27:33;25.80;32.80
81216;DHT22;70688;52.492;13.420;2023-07-20T08:29:59;25.40;33.40
81216;DHT22;70688;52.492;13.420;2023-07-20T08:32:25;24.70;35.60
81216;DHT22;70688;52.492;13.420;2023-07-20T08:34:51;24.50;36.10
81216;DHT22;70688;52.492;13.420;2023-07-20T08:37:17;24.30;36.90
81216;DHT22;70688;52.492;13.420;2023-07-20T08:39:42;24.50;36.80
81216;DHT22;70688;52.492;13.420;2023-07-20T08:42:09;24.80;36.00
81216;DHT22;70688;52.492;13.420;2023-07-20T08:44:37;25.20;35.50
81216;DHT22;70688;52.492;13.420;2023-07-20T08:47:04;24.60;36.60
81216;DHT22;70688;52.492;13.420;2023-07-20T08:49:31;24.80;36.20
81216;DHT22;70688;52.492;13.420;2023-07-20T08:51:58;24.70;36.20
81216;DHT22;70688;52.492;13.420;2023-07-20T08:54:28;24.70;36.60
81216;DHT22;70688;52.492;13.420;2023-07-20T08:56:56;24.80;36.10
81216;DHT22;70688;52.492;13.420;2023-07-20T08:59:22;25.20;35.80
81216;DHT22;70688;52.492;13.420;2023-07-20T09:01:48;26.70;32.90
81216;DHT22;70688;52.492;13.420;2023-07-20T09:04:14;26.00;32.50
81216;DHT22;70688;52.492;13.420;2023-07-20T09:06:41;25.00;34.30
81216;DHT22;70688;52.492;13.420;2023-07-20T09:09:07;24.40;35.80
81216;DHT22;70688;52.492;13.420;2023-07-20T09:11:33;24.90;35.30
81216;DHT22;70688;52.492;13.420;2023-07-20T09:14:08;26.00;32.50
81216;DHT22;70688;52.492;13.420;2023-07-20T09:16:52;27.20;30.30
81216;DHT22;70688;52.492;13.420;2023-07-20T09:19:18;27.70;29.10
81216;DHT22;70688;52.492;13.420;2023-07-20T09:21:48;27.30;29.70
81216;DHT22;70688;52.492;13.420;2023-07-20T09:24:15;27.10;29.80
81216;DHT22;70688;52.492;13.420;2023-07-20T09:26:42;26.80;30.90
81216;DHT22;70688;52.492;13.420;2023-07-20T09:29:11;27.70;29.70
81216;DHT22;70688;52.492;13.420;2023-07-20T09:31:37;28.30;28.50
81216;DHT22;70688;52.492;13.420;2023-07-20T09:34:02;28.50;27.90
81216;DHT22;70688;52.492;13.420;2023-07-20T09:36:31;29.60;27.20
81216;DHT22;70688;52.492;13.420;2023-07-20T09:38:59;29.30;26.90
81216;DHT22;70688;52.492;13.420;2023-07-20T09:41:24;28.00;29.20
81216;DHT22;70688;52.492;13.420;2023-07-20T09:43:51;27.10;29.30
81216;DHT22;70688;52.492;13.420;2023-07-20T09:46:17;26.80;30.00
81216;DHT22;70688;52.492;13.420;2023-07-20T09:48:52;26.40;31.00
81216;DHT22;70688;52.492;13.420;2023-07-20T09:51:22;25.80;32.30
81216;DHT22;70688;52.492;13.420;2023-07-20T09:53:49;25.20;33.40
81216;DHT22;70688;52.492;13.420;2023-07-20T09:56:16;24.40;35.40
81216;DHT22;70688;52.492;13.420;2023-07-20T09:58:45;24.10;36.00
81216;DHT22;70688;52.492;13.420;2023-07-20T10:01:11;23.80;36.70
81216;DHT22;70688;52.492;13.420;2023-07-20T10:03:40;23.50;37.50
81216;DHT22;70688;52.492;13.420;2023-07-20T10:06:10;23.10;38.90
81216;DHT22;70688;52.492;13.420;2023-07-20T10:08:41;22.80;39.60
81216;DHT22;70688;52.492;13.420;2023-07-20T10:11:08;22.50;40.60
81216;DHT22;70688;52.492;13.420;2023-07-20T10:13:39;22.40;40.70
81216;DHT22;70688;52.492;13.420;2023-07-20T10:16:18;22.40;40.70
81216;DHT22;70688;52.492;13.420;2023-07-20T10:18:55;22.50;40.70
81216;DHT22;70688;52.492;13.420;2023-07-20T10:21:22;22.70;40.50
81216;DHT22;70688;52.492;13.420;2023-07-20T10:23:48;22.80;40.20
81216;DHT22;70688;52.492;13.420;2023-07-20T10:26:14;23.00;40.50
81216;DHT22;70688;52.492;13.420;2023-07-20T10:28:41;23.20;40.20
81216;DHT22;70688;52.492;13.420;2023-07-20T10:31:12;23.80;38.60
81216;DHT22;70688;52.492;13.420;2023-07-20T10:33:38;23.90;38.40
81216;DHT22;70688;52.492;13.420;2023-07-20T10:36:05;23.80;38.80
81216;DHT22;70688;52.492;13.420;2023-07-20T10:38:42;23.70;39.30
81216;DHT22;70688;52.492;13.420;2023-07-20T10:41:18;23.50;39.60
81216;DHT22;70688;52.492;13.420;2023-07-20T10:43:45;23.30;39.30
81216;DHT22;70688;52.492;13.420;2023-07-20T10:46:12;23.30;38.90
81216;DHT22;70688;52.492;13.420;2023-07-20T10:49:07;23.10;39.20
81216;DHT22;70688;52.492;13.420;2023-07-20T10:51:47;22.90;39.90
81216;DHT22;70688;52.492;13.420;2023-07-20T10:56:43;23.00;40.90
81216;DHT22;70688;52.492;13.420;2023-07-20T10:59:41;22.90;41.40
81216;DHT22;70688;52.492;13.420;2023-07-20T11:02:07;22.80;42.50
81216;DHT22;70688;52.492;13.420;2023-07-20T11:04:43;22.90;42.10
81216;DHT22;70688;52.492;13.420;2023-07-20T11:07:09;22.80;42.10
81216;DHT22;70688;52.492;13.420;2023-07-20T11:09:36;22.70;42.20
81216;DHT22;70688;52.492;13.420;2023-07-20T11:12:10;22.80;41.70
81216;DHT22;70688;52.492;13.420;2023-07-20T11:14:40;22.90;41.50
81216;DHT22;70688;52.492;13.420;2023-07-20T11:17:14;22.80;41.60
81216;DHT22;70688;52.492;13.420;2023-07-20T11:19:40;22.90;41.70
81216;DHT22;70688;52.492;13.420;2023-07-20T11:22:06;22.80;41.80
81216;DHT22;70688;52.492;13.420;2023-07-20T11:24:39;22.70;41.70
81216;DHT22;70688;52.492;13.420;2023-07-20T11:27:05;22.90;41.30
81216;DHT22;70688;52.492;13.420;2023-07-20T11:29:30;22.70;41.90
81216;DHT22;70688;52.492;13.420;2023-07-20T11:31:57;22.70;42.00
81216;DHT22;70688;52.492;13.420;2023-07-20T11:34:24;22.70;42.10
81216;DHT22;70688;52.492;13.420;2023-07-20T11:36:51;22.60;41.80
81216;DHT22;70688;52.492;13.420;2023-07-20T11:39:19;22.60;42.20
81216;DHT22;70688;52.492;13.420;2023-07-20T11:41:53;22.90;41.70
81216;DHT22;70688;52.492;13.420;2023-07-20T11:44:20;22.90;41.40
81216;DHT22;70688;52.492;13.420;2023-07-20T11:46:59;23.10;41.10
81216;DHT22;70688;52.492;13.420;2023-07-20T11:49:25;23.20;41.30
81216;DHT22;70688;52.492;13.420;2023-07-20T11:51:51;23.20;41.10
81216;DHT22;70688;52.492;13.420;2023-07-20T11:54:17;23.30;39.80
81216;DHT22;70688;52.492;13.420;2023-07-20T11:56:42;23.50;40.00
81216;DHT22;70688;52.492;13.420;2023-07-20T11:59:08;23.40;39.90
81216;DHT22;70688;52.492;13.420;2023-07-20T12:01:34;23.30;40.50
81216;DHT22;70688;52.492;13.420;2023-07-20T12:04:02;23.20;39.20
81216;DHT22;70688;52.492;13.420;2023-07-20T12:06:29;23.20;38.80
81216;DHT22;70688;52.492;13.420;2023-07-20T12:08:56;23.20;38.60
81216;DHT22;70688;52.492;13.420;2023-07-20T12:11:38;23.50;38.50
81216;DHT22;70688;52.492;13.420;2023-07-20T12:14:07;23.30;39.50
81216;DHT22;70688;52.492;13.420;2023-07-20T12:16:34;23.20;39.60
81216;DHT22;70688;52.492;13.420;2023-07-20T12:19:05;23.30;39.50
81216;DHT22;70688;52.492;13.420;2023-07-20T12:21:32;23.10;40.20
81216;DHT22;70688;52.492;13.420;2023-07-20T12:23:59;23.10;40.50
81216;DHT22;70688;52.492;13.420;2023-07-20T12:26:25;22.80;41.30
81216;DHT22;70688;52.492;13.420;2023-07-20T12:28:52;22.60;41.90
81216;DHT22;70688;52.492;13.420;2023-07-20T12:31:18;22.50;41.30
81216;DHT22;70688;52.492;13.420;2023-07-20T12:33:43;22.50;40.90
81216;DHT22;70688;52.492;13.420;2023-07-20T12:36:10;22.60;39.80
81216;DHT22;70688;52.492;13.420;2023-07-20T12:38:36;22.70;39.60
81216;DHT22;70688;52.492;13.420;2023-07-20T12:41:02;22.90;39.60
81216;DHT22;70688;52.492;13.420;2023-07-20T12:43:29;23.20;38.80
81216;DHT22;70688;52.492;13.420;2023-07-20T12:45:55;23.30;37.90
81216;DHT22;70688;52.492;13.420;2023-07-20T12:48:21;23.60;37.00
81216;DHT22;70688;52.492;13.420;2023-07-20T12:50:47;23.70;35.20
81216;DHT22;70688;52.492;13.420;2023-07-20T12:53:14;23.70;35.40
81216;DHT22;70688;52.492;13.420;2023-07-20T12:55:40;23.80;35.40
81216;DHT22;70688;52.492;13.420;2023-07-20T12:58:07;23.70;35.90
81216;DHT22;70688;52.492;13.420;2023-07-20T13:00:33;23.80;35.90
81216;DHT22;70688;52.492;13.420;2023-07-20T13:02:59;23.70;35.90
81216;DHT22;70688;52.492;13.420;2023-07-20T13:05:25;23.80;35.60
81216;DHT22;70688;52.492;13.420;2023-07-20T13:07:50;23.60;33.90
81216;DHT22;70688;52.492;13.420;2023-07-20T13:10:16;23.40;33.60
81216;DHT22;70688;52.492;13.420;2023-07-20T13:12:42;23.50;33.50
81216;DHT22;70688;52.492;13.420;2023-07-20T13:15:08;23.50;32.30
81216;DHT22;70688;52.492;13.420;2023-07-20T13:17:35;23.50;31.30
81216;DHT22;70688;52.492;13.420;2023-07-20T13:20:02;23.60;30.60
81216;DHT22;70688;52.492;13.420;2023-07-20T13:22:30;23.70;30.50
81216;DHT22;70688;52.492;13.420;2023-07-20T13:24:56;23.60;30.50
81216;DHT22;70688;52.492;13.420;2023-07-20T13:27:21;23.70;30.00
81216;DHT22;70688;52.492;13.420;2023-07-20T13:29:47;23.60;30.10
81216;DHT22;70688;52.492;13.420;2023-07-20T13:32:14;23.50;30.70
81216;DHT22;70688;52.492;13.420;2023-07-20T13:34:40;23.60;30.20
81216;DHT22;70688;52.492;13.420;2023-07-20T13:37:06;23.60;29.70
81216;DHT22;70688;52.492;13.420;2023-07-20T13:39:32;23.70;29.70
81216;DHT22;70688;52.492;13.420;2023-07-20T13:41:57;23.60;29.70
81216;DHT22;70688;52.492;13.420;2023-07-20T13:44:23;23.70;29.60
81216;DHT22;70688;52.492;13.420;2023-07-20T13:46:49;23.60;29.10
81216;DHT22;70688;52.492;13.420;2023-07-20T13:49:15;23.80;28.90
81216;DHT22;70688;52.492;13.420;2023-07-20T13:51:42;23.90;29.00
81216;DHT22;70688;52.492;13.420;2023-07-20T13:54:08;23.90;28.70
81216;DHT22;70688;52.492;13.420;2023-07-20T13:56:34;23.90;29.20
81216;DHT22;70688;52.492;13.420;2023-07-20T13:59:00;23.90;29.00
81216;DHT22;70688;52.492;13.420;2023-07-20T14:01:26;23.90;29.80
81216;DHT22;70688;52.492;13.420;2023-07-20T14:03:53;24.00;29.60
81216;DHT22;70688;52.492;13.420;2023-07-20T14:06:19;23.80;29.80
81216;DHT22;70688;52.492;13.420;2023-07-20T14:08:45;23.70;30.00
81216;DHT22;70688;52.492;13.420;2023-07-20T14:11:15;23.60;30.70
81216;DHT22;70688;52.492;13.420;2023-07-20T14:13:41;23.60;30.70
81216;DHT22;70688;52.492;13.420;2023-07-20T14:16:06;23.80;30.30
81216;DHT22;70688;52.492;13.420;2023-07-20T14:18:33;24.00;30.00
81216;DHT22;70688;52.492;13.420;2023-07-20T14:20:58;24.20;29.60
81216;DHT22;70688;52.492;13.420;2023-07-20T14:23:24;24.20;29.50
81216;DHT22;70688;52.492;13.420;2023-07-20T14:25:50;24.30;29.00
81216;DHT22;70688;52.492;13.420;2023-07-20T14:28:16;24.20;29.30
81216;DHT22;70688;52.492;13.420;2023-07-20T14:30:42;24.20;28.40
81216;DHT22;70688;52.492;13.420;2023-07-20T14:33:07;24.30;27.90
81216;DHT22;70688;52.492;13.420;2023-07-20T14:35:34;24.50;27.70
81216;DHT22;70688;52.492;13.420;2023-07-20T14:38:00;24.40;28.10
81216;DHT22;70688;52.492;13.420;2023-07-20T14:40:26;24.40;28.80
81216;DHT22;70688;52.492;13.420;2023-07-20T14:42:51;24.30;28.60
81216;DHT22;70688;52.492;13.420;2023-07-20T14:45:18;24.10;28.50
81216;DHT22;70688;52.492;13.420;2023-07-20T14:47:44;24.10;28.60
81216;DHT22;70688;52.492;13.420;2023-07-20T14:50:11;24.00;28.40
81216;DHT22;70688;52.492;13.420;2023-07-20T14:52:37;23.80;28.10
81216;DHT22;70688;52.492;13.420;2023-07-20T14:55:03;23.70;29.00
81216;DHT22;70688;52.492;13.420;2023-07-20T14:57:28;23.70;29.20
81216;DHT22;70688;52.492;13.420;2023-07-20T14:59:54;23.80;28.40
81216;DHT22;70688;52.492;13.420;2023-07-20T15:02:20;23.90;28.60
81216;DHT22;70688;52.492;13.420;2023-07-20T15:04:46;24.10;28.40
81216;DHT22;70688;52.492;13.420;2023-07-20T15:07:12;24.20;29.10
81216;DHT22;70688;52.492;13.420;2023-07-20T15:09:38;24.20;28.50
81216;DHT22;70688;52.492;13.420;2023-07-20T15:12:05;24.10;28.70
81216;DHT22;70688;52.492;13.420;2023-07-20T15:14:31;24.10;28.70
81216;DHT22;70688;52.492;13.420;2023-07-20T15:16:56;24.10;28.50
81216;DHT22;70688;52.492;13.420;2023-07-20T15:19:22;23.90;28.40
81216;DHT22;70688;52.492;13.420;2023-07-20T15:21:48;23.70;28.30
81216;DHT22;70688;52.492;13.420;2023-07-20T15:24:14;23.60;28.70
81216;DHT22;70688;52.492;13.420;2023-07-20T15:26:40;23.80;28.80
81216;DHT22;70688;52.492;13.420;2023-07-20T15:29:06;23.80;29.00